createdAt,value
2018-04-09T04:09:35.593Z,3.30
2018-04-09T04:12:04.665Z,3.53
2018-04-09T04:14:33.356Z,3.78
2018-04-09T04:17:13.325Z,3.00
2018-04-09T04:19:53.474Z,4.00
2018-04-09T04:22:22.489Z,3.37
2018-04-09T04:24:51.746Z,3.80
2018-04-09T04:27:21.720Z,3.08
2018-04-09T04:29:51.396Z,3.78
2018-04-09T04:35:40.991Z,4.03
2018-04-09T04:38:58.309Z,3.35
2018-04-09T04:41:27.196Z,3.37
2018-04-09T04:44:35.628Z,2.80
2018-04-09T04:47:05.469Z,3.15
2018-04-09T04:49:34.969Z,3.15
2018-04-09T04:55:36.472Z,4.57
2018-04-09T04:58:07.301Z,3.95
2018-04-09T05:00:37.486Z,4.53
2018-04-09T05:03:07.183Z,3.80
2018-04-09T05:05:37.471Z,3.92
2018-04-09T05:08:08.068Z,5.05
2018-04-09T05:13:41.084Z,4.65
2018-04-09T05:17:00.864Z,3.50
2018-04-09T05:22:32.609Z,4.15
2018-04-09T05:33:57.594Z,3.65
2018-04-09T05:40:19.546Z,4.40
2018-04-09T05:53:31.361Z,3.92
2018-04-09T05:56:00.949Z,3.60
2018-04-09T05:58:30.800Z,3.43
2018-04-09T06:00:59.737Z,3.03
2018-04-09T06:03:29.068Z,3.20
2018-04-09T06:05:59.565Z,3.30
2018-04-09T06:08:30.002Z,3.30
2018-04-09T06:10:59.525Z,2.50
2018-04-09T06:13:43.563Z,2.67
2018-04-09T06:16:13.350Z,2.70
2018-04-09T06:18:43.094Z,2.90
2018-04-09T06:21:12.183Z,2.20
2018-04-09T06:23:41.417Z,3.40
2018-04-09T06:26:10.668Z,3.27
2018-04-09T06:28:39.594Z,2.70
2018-04-09T06:31:09.030Z,2.70
2018-04-09T06:33:38.056Z,2.70
2018-04-09T06:36:07.716Z,2.90
2018-04-09T06:38:36.869Z,2.90
2018-04-09T06:41:06.617Z,2.60
2018-04-09T06:43:36.178Z,3.23
2018-04-09T06:46:25.400Z,3.20
2018-04-09T06:48:54.240Z,2.47
2018-04-09T06:54:40.392Z,3.13
2018-04-09T06:57:17.039Z,2.93
2018-04-09T06:59:53.918Z,3.43
2018-04-09T07:06:08.421Z,2.70
2018-04-09T07:22:19.472Z,2.90
2018-04-09T07:31:27.861Z,1.57
2018-04-09T07:37:01.100Z,2.13
2018-04-09T07:46:29.418Z,1.90
2018-04-09T07:49:02.236Z,2.73
2018-04-09T07:51:31.750Z,2.40
2018-04-09T07:56:57.667Z,2.43
2018-04-09T08:02:09.490Z,2.57
2018-04-09T08:04:41.228Z,2.90
2018-04-09T08:10:42.217Z,2.57
2018-04-09T08:13:13.141Z,2.83
2018-04-09T08:25:16.945Z,2.70
2018-04-09T08:30:48.699Z,3.07
2018-04-09T08:36:15.135Z,2.20
2018-04-09T08:44:08.890Z,2.93
2018-04-09T08:49:27.293Z,2.67
2018-04-09T09:03:49.665Z,2.10
2018-04-09T09:29:49.864Z,3.00
2018-04-09T09:46:22.564Z,3.00
2018-04-09T09:49:09.098Z,2.70
2018-04-09T09:55:19.993Z,2.60
2018-04-09T10:03:37.714Z,1.80
2018-04-09T10:34:45.054Z,2.17
2018-04-09T11:20:49.369Z,2.63
2018-04-09T13:48:49.201Z,3.40
2018-04-09T14:44:03.599Z,2.90
2018-04-09T15:12:56.537Z,3.90
2018-04-09T15:18:51.473Z,2.67
2018-04-09T15:21:30.763Z,4.00
2018-04-09T17:22:48.535Z,3.53
2018-04-09T17:25:18.568Z,4.10
2018-04-09T17:55:00.915Z,5.57
2018-04-09T17:57:30.140Z,4.10
2018-04-09T18:06:35.268Z,3.87
2018-04-09T18:09:03.677Z,3.37
2018-04-09T18:11:32.896Z,3.67
2018-04-09T18:14:01.700Z,3.83
2018-04-09T18:16:38.612Z,2.90
2018-04-09T18:19:08.405Z,3.23
2018-04-09T18:21:52.399Z,3.70
2018-04-09T18:24:22.231Z,3.33
2018-04-09T18:26:51.044Z,3.00
2018-04-09T18:29:20.013Z,3.10
2018-04-09T18:32:11.027Z,3.13
2018-04-09T18:34:49.139Z,3.03
2018-04-09T18:37:17.899Z,3.97
2018-04-09T18:39:50.685Z,3.67
2018-04-09T18:45:44.953Z,3.93
2018-04-09T18:48:42.078Z,3.40
2018-04-09T18:51:37.020Z,3.70
2018-04-09T18:57:34.553Z,4.57
2018-04-09T19:00:03.232Z,3.63
2018-04-09T19:02:47.101Z,4.00
2018-04-09T19:08:01.980Z,4.40
2018-04-09T19:10:30.705Z,3.93
2018-04-09T19:13:07.344Z,3.83
2018-04-09T19:15:36.421Z,3.70
2018-04-09T19:18:04.903Z,3.83
2018-04-09T19:23:34.328Z,3.30
2018-04-09T19:26:03.563Z,3.30
2018-04-09T19:29:03.011Z,4.13
2018-04-09T19:31:31.796Z,3.53
2018-04-09T19:34:00.420Z,3.10
2018-04-09T19:36:35.141Z,3.27
2018-04-09T19:39:08.984Z,3.73
2018-04-09T19:41:54.274Z,3.70
2018-04-09T19:44:23.079Z,2.80
2018-04-09T19:46:51.863Z,3.40
2018-04-09T19:49:21.194Z,3.23
2018-04-09T19:51:50.179Z,3.60
2018-04-09T19:54:19.011Z,3.67
2018-04-09T19:56:56.009Z,3.70
2018-04-09T19:59:24.888Z,2.43
2018-04-09T20:01:54.474Z,3.17
2018-04-09T20:04:23.288Z,3.57
2018-04-09T20:06:52.686Z,2.80
2018-04-09T20:10:08.304Z,2.80
2018-04-09T20:12:38.280Z,3.60
2018-04-09T20:15:31.376Z,3.73
2018-04-09T20:18:00.851Z,3.50
2018-04-09T20:20:29.991Z,4.00
2018-04-09T20:22:59.804Z,3.70
2018-04-09T20:25:28.684Z,3.73
2018-04-09T20:28:04.783Z,3.70
2018-04-09T20:30:34.106Z,3.67
2018-04-09T20:33:03.571Z,3.30
2018-04-09T20:35:33.132Z,3.20
2018-04-09T20:38:01.916Z,3.40
2018-04-09T20:40:30.505Z,3.60
2018-04-09T20:42:59.361Z,4.30
2018-04-09T20:45:29.133Z,3.73
2018-04-09T20:51:27.474Z,3.60
2018-04-09T20:53:56.252Z,3.70
2018-04-09T20:56:26.185Z,3.70
2018-04-09T20:58:54.989Z,3.60
2018-04-09T21:08:26.523Z,3.67
2018-04-09T21:10:55.597Z,3.50
2018-04-09T21:13:25.106Z,3.97
2018-04-09T21:15:54.221Z,3.97
2018-04-09T21:18:31.135Z,3.80
2018-04-09T21:21:13.511Z,3.60
2018-04-09T21:24:29.915Z,3.30
2018-04-09T21:26:58.604Z,3.10
2018-04-09T21:29:29.339Z,3.70
2018-04-09T21:31:58.147Z,3.40
2018-04-09T21:34:27.006Z,3.67
2018-04-09T21:36:55.815Z,3.77
2018-04-09T21:39:33.445Z,3.50
2018-04-09T21:42:02.520Z,3.67
2018-04-09T21:44:31.359Z,4.03
2018-04-09T21:50:29.951Z,4.17
2018-04-09T21:52:59.192Z,4.00
2018-04-09T21:55:28.093Z,5.17
2018-04-09T21:57:57.535Z,4.37
2018-04-09T22:00:25.883Z,3.50
